Argusville, North Dakota
Current Conditions -  °F | °C
As of 2:53 AM on Monday 22 Dec 2014 (Local Time) from KFAR Reporting Station
Haze Haze  
Wind Chill: 30°   Ceiling: 600
Heat Index: 38°   Visibility: 5mi
Dew Point: 35°   Wind: 14mph
Humidity: 89%   Direction: 140°SE
Pressure: 29.51"   Gusts: NA
Location:  47.05°N, 96.93°W
Report Text: KFAR 220853Z 14012KT 5SM BR OVC006 03/02 A2951 RMK AO2 SLP002 T00330017 56011
Loading
Personal Weather Stations






























Interactive Weather Map New forecast layout! Learn more

10-Day Weather Forecast

Advertisements
Track Severe Weather on mobile